Time;durP1;ratioP1;P1;durP2;ratioP2;P2;SDS_P1;SDS_P2;PMS_P1;PMS_P2;Temp;Humidity;BMP_temperature;BMP_pressure;BME280_temperature;BME280_humidity;BME280_pressure;Samples;Min_cycle;Max_cycle;Signal;HPM_P1;HPM_P2
2023/12/31 00:00:48;;;;;;;3.95;1.90;;;9.90;99.90;;;;;;4131116;28;20057;-71
2023/12/31 00:02:49;;;;;;;3.50;1.75;;;9.90;99.90;;;;;;4137757;28;20042;-70
2023/12/31 00:04:49;;;;;;;3.38;1.40;;;9.80;99.90;;;;;;4141130;28;20041;-70
2023/12/31 00:06:50;;;;;;;3.72;1.80;;;9.80;99.90;;;;;;4136930;28;20042;-71
2023/12/31 00:08:50;;;;;;;2.92;1.65;;;9.80;99.90;;;;;;4132374;28;20042;-71
2023/12/31 00:10:51;;;;;;;4.38;1.95;;;9.80;99.90;;;;;;4136562;28;20111;-71
2023/12/31 00:12:52;;;;;;;3.50;2.00;;;9.70;99.90;;;;;;4135778;28;20049;-70
2023/12/31 00:14:52;;;;;;;2.42;1.55;;;9.70;99.90;;;;;;4136051;28;20045;-70
2023/12/31 00:16:53;;;;;;;3.95;1.55;;;9.70;99.90;;;;;;4136949;28;20045;-70
2023/12/31 00:18:53;;;;;;;3.70;1.50;;;9.70;99.90;;;;;;4140311;28;20042;-70
2023/12/31 00:20:54;;;;;;;2.55;1.63;;;9.70;99.90;;;;;;4136212;28;20034;-70
2023/12/31 00:22:56;;;;;;;4.20;1.80;;;9.70;99.90;;;;;;4141253;28;20093;-70
2023/12/31 00:24:56;;;;;;;4.97;1.73;;;9.70;99.90;;;;;;4135393;28;20052;-71
2023/12/31 00:26:57;;;;;;;3.53;1.73;;;9.70;99.90;;;;;;4133779;28;20398;-71
2023/12/31 00:28:57;;;;;;;2.25;1.40;;;9.70;99.90;;;;;;4135861;28;20041;-70
2023/12/31 00:30:58;;;;;;;3.70;1.70;;;9.60;99.90;;;;;;4139903;28;20518;-76
2023/12/31 00:32:58;;;;;;;3.22;1.25;;;9.60;99.90;;;;;;4132296;28;20042;-65
2023/12/31 00:34:59;;;;;;;5.78;1.63;;;9.60;99.90;;;;;;4132511;28;20538;-65
2023/12/31 00:37:00;;;;;;;2.80;1.20;;;9.60;99.90;;;;;;4138941;28;20048;-65
2023/12/31 00:39:00;;;;;;;2.58;1.50;;;9.60;99.90;;;;;;4138448;28;20060;-65
2023/12/31 00:41:01;;;;;;;1.92;1.20;;;9.60;99.90;;;;;;4132525;28;20042;-65
2023/12/31 00:43:01;;;;;;;1.98;1.20;;;9.60;99.90;;;;;;4140999;28;20080;-65
2023/12/31 00:45:02;;;;;;;2.25;1.38;;;9.60;99.90;;;;;;4137408;28;20097;-66
2023/12/31 00:47:03;;;;;;;1.77;1.35;;;9.60;99.90;;;;;;4132333;28;20057;-65
2023/12/31 00:49:04;;;;;;;3.50;1.50;;;9.60;99.90;;;;;;4135625;28;20038;-65
2023/12/31 00:51:04;;;;;;;2.97;1.58;;;9.60;99.90;;;;;;4140155;28;20513;-65
2023/12/31 00:53:05;;;;;;;1.98;1.10;;;9.60;99.90;;;;;;4133670;28;20383;-65
2023/12/31 00:55:06;;;;;;;6.40;1.80;;;9.60;99.90;;;;;;4137517;28;20050;-66
2023/12/31 00:57:07;;;;;;;2.88;1.70;;;9.60;99.90;;;;;;4139200;28;20046;-65
2023/12/31 00:59:07;;;;;;;3.85;1.75;;;9.60;99.90;;;;;;4140044;28;20038;-65
2023/12/31 01:01:08;;;;;;;4.70;1.83;;;9.60;99.90;;;;;;4135073;28;20455;-67
2023/12/31 01:03:08;;;;;;;6.78;1.60;;;9.60;99.90;;;;;;4130811;28;20207;-66
2023/12/31 01:05:09;;;;;;;2.65;1.50;;;9.60;99.90;;;;;;4133575;28;20152;-65
2023/12/31 01:07:09;;;;;;;2.25;1.30;;;9.60;99.90;;;;;;4137432;28;20038;-66
2023/12/31 01:09:10;;;;;;;3.00;1.52;;;9.60;99.90;;;;;;4132011;28;20397;-66
2023/12/31 01:11:11;;;;;;;3.03;1.40;;;9.60;99.90;;;;;;4138290;28;20034;-66
2023/12/31 01:13:12;;;;;;;4.75;1.63;;;9.60;99.90;;;;;;4127164;28;20065;-65
2023/12/31 01:15:12;;;;;;;3.25;1.65;;;9.70;99.90;;;;;;4132677;28;20042;-65
2023/12/31 01:17:13;;;;;;;3.38;1.40;;;9.60;99.90;;;;;;4132345;28;20376;-65
2023/12/31 01:19:16;;;;;;;3.47;1.55;;;9.60;99.90;;;;;;4134690;28;20037;-65
2023/12/31 01:21:19;;;;;;;;;;;9.60;99.90;;;;;;4139539;28;20092;-65
2023/12/31 01:23:19;;;;;;;;;;;9.60;99.90;;;;;;4135867;28;19977;-65
2023/12/31 01:25:20;;;;;;;3.88;1.23;;;9.60;99.90;;;;;;4136617;28;20376;-65
2023/12/31 01:27:21;;;;;;;3.33;1.33;;;9.60;99.90;;;;;;4142837;28;20033;-65
2023/12/31 01:29:21;;;;;;;2.30;1.30;;;9.60;99.90;;;;;;4134588;28;20126;-65
2023/12/31 01:31:22;;;;;;;1.38;1.00;;;9.60;99.90;;;;;;4133593;28;20034;-65
2023/12/31 01:33:22;;;;;;;2.65;1.40;;;9.70;99.90;;;;;;4131232;28;20030;-65
2023/12/31 01:35:23;;;;;;;1.92;1.23;;;9.60;99.90;;;;;;4128284;28;20030;-65
2023/12/31 01:37:24;;;;;;;2.80;1.20;;;9.70;99.90;;;;;;4133510;28;20494;-65
2023/12/31 01:39:25;;;;;;;2.33;1.35;;;9.70;99.90;;;;;;4138952;28;20042;-65
2023/12/31 01:41:25;;;;;;;1.55;1.30;;;9.60;99.90;;;;;;4143622;28;20030;-72
2023/12/31 01:43:26;;;;;;;3.30;1.52;;;9.70;99.90;;;;;;4141686;28;20038;-72
2023/12/31 01:45:26;;;;;;;3.28;1.65;;;9.70;99.90;;;;;;4134859;28;20061;-71
2023/12/31 01:47:27;;;;;;;2.95;1.40;;;9.70;99.90;;;;;;4140793;28;20058;-72
2023/12/31 01:49:30;;;;;;;2.47;1.30;;;9.70;99.90;;;;;;4135285;28;20039;-72
2023/12/31 01:51:32;;;;;;;1.88;1.27;;;9.70;99.90;;;;;;4142401;28;20475;-72
2023/12/31 01:53:33;;;;;;;2.03;1.15;;;9.70;99.90;;;;;;4137004;28;20033;-72
2023/12/31 01:55:34;;;;;;;2.33;1.40;;;9.70;99.90;;;;;;4141080;28;20045;-71
2023/12/31 01:57:37;;;;;;;2.20;1.33;;;9.70;99.90;;;;;;4136361;28;20043;-72
2023/12/31 01:59:39;;;;;;;1.88;1.27;;;9.70;99.90;;;;;;4134863;28;20031;-72
2023/12/31 02:01:40;;;;;;;2.40;1.08;;;9.70;99.90;;;;;;4138323;28;20371;-70
2023/12/31 02:03:41;;;;;;;1.52;1.10;;;9.70;99.90;;;;;;4139036;28;20034;-71
2023/12/31 02:05:42;;;;;;;1.90;1.35;;;9.70;99.90;;;;;;4141145;28;20383;-71
2023/12/31 02:07:42;;;;;;;2.30;1.10;;;9.70;99.90;;;;;;4139867;28;20050;-71
2023/12/31 02:09:43;;;;;;;1.95;1.42;;;9.70;99.90;;;;;;4138965;28;20071;-71
2023/12/31 02:11:44;;;;;;;2.15;1.23;;;9.60;99.90;;;;;;4139060;28;20041;-71
2023/12/31 02:13:44;;;;;;;2.47;1.35;;;9.70;99.90;;;;;;4139693;28;20034;-71
2023/12/31 02:15:45;;;;;;;2.72;1.33;;;9.70;99.90;;;;;;4134915;28;20104;-71
2023/12/31 02:17:45;;;;;;;1.73;1.08;;;9.70;99.90;;;;;;4136702;28;20114;-72
2023/12/31 02:19:46;;;;;;;1.98;1.40;;;9.70;99.90;;;;;;4138241;28;20050;-71
2023/12/31 02:21:46;;;;;;;3.30;1.60;;;9.70;99.90;;;;;;4142191;28;20092;-71
2023/12/31 02:23:47;;;;;;;2.75;1.55;;;9.60;99.90;;;;;;4138848;28;20037;-71
2023/12/31 02:26:04;;;;;;;3.47;1.70;;;9.70;99.90;;;;;;4141062;28;20044;-71
2023/12/31 02:28:08;;;;;;;3.42;1.63;;;9.70;99.90;;;;;;4141289;28;20042;-71
2023/12/31 02:30:10;;;;;;;2.38;1.50;;;9.60;99.90;;;;;;4128565;28;20490;-70
2023/12/31 02:32:10;;;;;;;3.92;1.40;;;9.70;99.90;;;;;;4139252;28;20489;-70
2023/12/31 02:34:11;;;;;;;3.10;1.60;;;9.70;99.90;;;;;;4137966;28;20041;-71
2023/12/31 02:36:12;;;;;;;2.53;1.10;;;9.70;99.90;;;;;;4141088;28;20038;-70
2023/12/31 02:38:12;;;;;;;2.35;1.52;;;9.60;99.90;;;;;;4138085;28;20034;-71
2023/12/31 02:40:13;;;;;;;2.47;1.70;;;9.60;99.90;;;;;;4135647;28;20034;-70
2023/12/31 02:42:14;;;;;;;2.10;1.15;;;9.60;99.90;;;;;;4137970;28;20037;-71
2023/12/31 02:44:14;;;;;;;3.22;1.65;;;9.60;99.90;;;;;;4142705;28;20034;-70
2023/12/31 02:46:15;;;;;;;2.47;1.70;;;9.60;99.90;;;;;;4138040;28;20037;-70
2023/12/31 02:48:17;;;;;;;3.70;1.35;;;9.60;99.90;;;;;;4134314;28;20429;-71
2023/12/31 02:50:17;;;;;;;11.18;1.50;;;9.60;99.90;;;;;;4136429;28;20042;-71
2023/12/31 02:52:18;;;;;;;2.97;1.45;;;9.50;99.90;;;;;;4131977;28;20034;-70
2023/12/31 02:54:18;;;;;;;2.13;1.30;;;9.50;99.90;;;;;;4130433;28;20165;-69
2023/12/31 02:56:19;;;;;;;2.30;1.50;;;9.50;99.90;;;;;;4140318;28;20057;-69
2023/12/31 02:58:20;;;;;;;2.70;1.30;;;9.60;99.90;;;;;;4143185;28;20133;-69
2023/12/31 03:00:20;;;;;;;2.05;1.38;;;9.60;99.90;;;;;;4141983;28;20026;-69
2023/12/31 03:02:21;;;;;;;2.55;0.98;;;9.60;99.90;;;;;;4141676;28;20119;-70
2023/12/31 03:04:21;;;;;;;1.75;1.00;;;9.60;99.90;;;;;;4143922;28;20034;-69
2023/12/31 03:06:22;;;;;;;1.30;0.82;;;9.50;99.90;;;;;;4137768;28;20062;-69
2023/12/31 03:08:22;;;;;;;1.98;1.17;;;9.50;99.90;;;;;;4143141;28;20030;-69
2023/12/31 03:10:23;;;;;;;1.63;1.10;;;9.60;99.90;;;;;;4139224;28;20042;-69
2023/12/31 03:12:24;;;;;;;1.10;1.00;;;9.60;99.90;;;;;;4139831;28;20034;-69
2023/12/31 03:14:24;;;;;;;2.90;1.23;;;9.60;99.90;;;;;;4142859;28;20029;-69
2023/12/31 03:16:25;;;;;;;2.83;1.10;;;9.60;99.90;;;;;;4136875;28;20062;-69
2023/12/31 03:18:25;;;;;;;1.77;1.20;;;9.60;99.90;;;;;;4141114;28;20044;-69
2023/12/31 03:20:26;;;;;;;3.58;1.48;;;9.60;99.90;;;;;;4135359;28;20034;-69
2023/12/31 03:22:26;;;;;;;6.85;1.67;;;9.60;99.90;;;;;;4136086;28;20041;-69
2023/12/31 03:24:27;;;;;;;4.43;1.75;;;9.60;99.90;;;;;;4145074;28;20103;-69
2023/12/31 03:26:27;;;;;;;4.40;1.60;;;9.60;99.90;;;;;;4141099;28;20049;-69
2023/12/31 03:28:28;;;;;;;4.25;1.50;;;9.60;99.90;;;;;;4136777;28;20040;-69
2023/12/31 03:30:29;;;;;;;4.65;1.65;;;9.60;99.90;;;;;;4139851;28;20046;-69
2023/12/31 03:32:29;;;;;;;2.55;1.27;;;9.70;99.90;;;;;;4139898;28;20489;-69
2023/12/31 03:34:30;;;;;;;2.75;1.50;;;9.70;99.90;;;;;;4135167;28;20036;-69
2023/12/31 03:36:30;;;;;;;4.32;2.00;;;9.70;99.90;;;;;;4130461;28;20047;-70
2023/12/31 03:38:31;;;;;;;3.88;2.03;;;9.70;99.90;;;;;;4136170;28;20112;-69
2023/12/31 03:40:31;;;;;;;3.78;2.08;;;9.70;99.90;;;;;;4135745;28;20045;-69
2023/12/31 03:42:32;;;;;;;3.83;1.75;;;9.70;99.90;;;;;;4142699;28;20046;-69
2023/12/31 03:44:33;;;;;;;5.50;2.28;;;9.70;99.90;;;;;;4142474;28;20478;-69
2023/12/31 03:46:33;;;;;;;2.72;1.83;;;9.70;99.90;;;;;;4137658;28;20038;-69
2023/12/31 03:48:34;;;;;;;4.88;1.98;;;9.70;99.90;;;;;;4135460;28;20121;-69
2023/12/31 03:50:35;;;;;;;4.68;1.90;;;9.70;99.90;;;;;;4137574;28;20490;-70
2023/12/31 03:52:37;;;;;;;2.83;2.05;;;9.70;99.90;;;;;;4138528;28;20474;-69
2023/12/31 03:54:43;;;;;;;4.30;2.17;;;9.70;99.90;;;;;;4138617;28;20034;-69
2023/12/31 03:56:44;;;;;;;2.42;1.75;;;9.70;99.90;;;;;;4127333;28;20298;-69
2023/12/31 03:58:44;;;;;;;3.25;1.90;;;9.70;99.90;;;;;;4136716;28;20371;-70
2023/12/31 04:00:48;;;;;;;3.88;2.08;;;9.70;99.90;;;;;;4136464;28;20045;-65
2023/12/31 04:02:49;;;;;;;5.32;2.08;;;9.70;99.90;;;;;;4134271;28;20046;-85
2023/12/31 04:04:49;;;;;;;3.50;2.13;;;9.70;99.90;;;;;;4139035;28;20034;-85
2023/12/31 04:06:50;;;;;;;3.00;2.20;;;9.70;99.90;;;;;;4135665;28;20418;-84
2023/12/31 04:08:50;;;;;;;4.70;2.33;;;9.70;99.90;;;;;;4142114;28;20048;-84
2023/12/31 04:10:51;;;;;;;3.70;2.10;;;9.70;99.90;;;;;;4131489;28;20022;-84
2023/12/31 04:12:51;;;;;;;4.05;2.50;;;9.70;99.90;;;;;;4136105;28;20034;-85
2023/12/31 04:14:52;;;;;;;3.45;2.10;;;9.70;99.90;;;;;;4137871;28;20461;-83
2023/12/31 04:16:53;;;;;;;3.97;2.13;;;9.70;99.90;;;;;;4135584;28;20058;-84
2023/12/31 04:18:53;;;;;;;2.50;2.00;;;9.70;99.90;;;;;;4139588;28;20393;-85
2023/12/31 04:20:54;;;;;;;3.80;2.20;;;9.70;99.90;;;;;;4138748;28;20046;-84
2023/12/31 04:22:54;;;;;;;3.88;2.10;;;9.70;99.90;;;;;;4138052;28;20125;-84
2023/12/31 04:24:55;;;;;;;3.35;2.20;;;9.70;99.90;;;;;;4141970;28;20611;-84
2023/12/31 04:26:57;;;;;;;3.10;2.05;;;9.70;99.90;;;;;;4131700;28;20401;-84
2023/12/31 04:28:57;;;;;;;2.72;1.90;;;9.70;99.90;;;;;;4134049;28;20125;-85
2023/12/31 04:30:58;;;;;;;2.50;2.00;;;9.70;99.90;;;;;;4131919;28;20049;-84
2023/12/31 04:32:58;;;;;;;2.00;1.50;;;9.70;99.90;;;;;;4139328;28;20042;-84
2023/12/31 04:34:59;;;;;;;3.30;1.80;;;9.80;99.90;;;;;;4134126;28;20038;-84
2023/12/31 04:37:00;;;;;;;5.00;1.90;;;9.70;99.90;;;;;;4133952;28;20054;-84
2023/12/31 04:39:00;;;;;;;2.53;1.73;;;9.80;99.90;;;;;;4134701;28;20355;-84
2023/12/31 04:41:01;;;;;;;6.07;2.00;;;9.80;99.90;;;;;;4135564;28;20092;-84
2023/12/31 04:43:02;;;;;;;4.05;2.25;;;9.70;99.90;;;;;;4140065;28;20026;-84
2023/12/31 04:45:07;;;;;;;3.72;1.85;;;9.80;99.90;;;;;;4135045;28;20495;-83
2023/12/31 04:47:07;;;;;;;3.40;1.92;;;9.80;99.90;;;;;;4141558;28;20050;-85
2023/12/31 04:49:08;;;;;;;5.13;2.10;;;9.70;99.90;;;;;;4133706;28;20043;-86
2023/12/31 04:51:08;;;;;;;2.10;1.70;;;9.80;99.90;;;;;;4132067;28;20431;-84
2023/12/31 04:53:09;;;;;;;4.43;2.33;;;9.80;99.90;;;;;;4143306;28;20397;-85
2023/12/31 04:55:10;;;;;;;4.22;2.17;;;9.80;99.90;;;;;;4141698;28;20124;-76
2023/12/31 04:57:10;;;;;;;3.35;2.13;;;9.80;99.90;;;;;;4141201;28;20478;-83
2023/12/31 04:59:11;;;;;;;2.92;2.00;;;9.70;99.90;;;;;;4133144;28;20526;-84
2023/12/31 05:01:11;;;;;;;4.00;1.88;;;9.70;99.90;;;;;;4134831;28;20405;-84
2023/12/31 05:03:12;;;;;;;4.55;2.20;;;9.70;99.90;;;;;;4127383;28;20062;-84
2023/12/31 05:05:12;;;;;;;4.07;2.42;;;9.70;99.90;;;;;;4135631;28;20115;-87
2023/12/31 05:07:14;;;;;;;3.53;1.92;;;9.70;99.90;;;;;;4141960;28;20046;-86
2023/12/31 05:09:15;;;;;;;3.30;1.88;;;9.70;99.90;;;;;;4132425;28;20478;-83
2023/12/31 05:11:15;;;;;;;3.50;2.13;;;9.70;99.90;;;;;;4136347;28;20034;-70
2023/12/31 05:13:16;;;;;;;4.38;1.98;;;9.80;99.90;;;;;;4137270;28;20113;-70
2023/12/31 05:15:16;;;;;;;5.28;2.38;;;9.70;99.90;;;;;;4140071;28;20046;-70
2023/12/31 05:17:17;;;;;;;3.75;2.10;;;9.80;99.90;;;;;;4140526;28;20134;-70
2023/12/31 05:19:18;;;;;;;4.70;2.17;;;9.70;99.90;;;;;;4141871;28;20128;-70
2023/12/31 05:21:19;;;;;;;6.57;2.28;;;9.80;99.90;;;;;;4131900;28;20035;-70
2023/12/31 05:23:19;;;;;;;5.18;2.13;;;9.70;99.90;;;;;;4139338;28;20060;-70
2023/12/31 05:25:20;;;;;;;3.50;2.17;;;9.70;99.90;;;;;;4138330;28;20129;-70
2023/12/31 05:27:21;;;;;;;3.90;2.20;;;9.80;99.90;;;;;;4144193;28;20490;-71
2023/12/31 05:29:21;;;;;;;2.53;1.90;;;9.70;99.90;;;;;;4140875;28;20045;-71
2023/12/31 05:31:22;;;;;;;5.00;2.17;;;9.80;99.90;;;;;;4139550;28;20471;-71
2023/12/31 05:33:23;;;;;;;3.22;2.00;;;9.80;99.90;;;;;;4143494;28;20512;-71
2023/12/31 05:35:23;;;;;;;3.63;2.30;;;9.80;99.90;;;;;;4138162;28;20521;-70
2023/12/31 05:37:24;;;;;;;2.72;1.70;;;9.80;99.90;;;;;;4140327;28;20429;-71
2023/12/31 05:39:24;;;;;;;3.15;1.83;;;9.70;99.90;;;;;;4136997;28;20088;-71
2023/12/31 05:41:25;;;;;;;6.25;1.85;;;9.80;99.90;;;;;;4143928;28;20050;-71
2023/12/31 05:43:25;;;;;;;3.55;1.85;;;9.80;99.90;;;;;;4141852;28;20030;-71
2023/12/31 05:45:26;;;;;;;3.30;2.13;;;9.80;99.90;;;;;;4138292;28;20140;-71
2023/12/31 05:47:26;;;;;;;4.40;1.88;;;9.80;99.90;;;;;;4135775;28;20042;-70
2023/12/31 05:49:27;;;;;;;3.83;2.08;;;9.80;99.90;;;;;;4141526;28;20053;-71
2023/12/31 05:51:28;;;;;;;2.53;1.65;;;9.80;99.90;;;;;;4139940;28;20037;-71
2023/12/31 05:53:28;;;;;;;3.03;1.67;;;9.80;99.90;;;;;;4140711;28;20401;-70
2023/12/31 05:55:29;;;;;;;2.70;1.77;;;9.80;99.90;;;;;;4138242;28;20069;-71
2023/12/31 05:57:29;;;;;;;2.53;1.70;;;9.80;99.90;;;;;;4142399;28;20084;-71
2023/12/31 05:59:31;;;;;;;2.88;1.88;;;9.80;99.90;;;;;;4132716;28;20050;-71
2023/12/31 06:01:31;;;;;;;2.70;1.60;;;9.80;99.90;;;;;;4135116;28;20042;-70
2023/12/31 06:03:32;;;;;;;4.25;2.10;;;9.80;99.90;;;;;;4140650;28;20510;-71
2023/12/31 06:05:32;;;;;;;3.63;1.98;;;9.80;99.90;;;;;;4138098;28;20038;-71
2023/12/31 06:07:34;;;;;;;2.88;1.95;;;9.80;99.90;;;;;;4139656;28;20128;-71
2023/12/31 06:09:34;;;;;;;2.05;1.75;;;9.80;99.90;;;;;;4135051;28;20050;-71
2023/12/31 06:11:35;;;;;;;3.65;1.85;;;9.80;99.90;;;;;;4134067;28;20049;-71
2023/12/31 06:13:35;;;;;;;2.35;2.03;;;9.80;99.90;;;;;;4140714;28;20050;-71
2023/12/31 06:15:36;;;;;;;2.78;1.92;;;9.80;99.90;;;;;;4136830;28;20097;-71
2023/12/31 06:17:37;;;;;;;3.00;2.05;;;9.80;99.90;;;;;;4142930;28;20045;-71
2023/12/31 06:19:37;;;;;;;4.07;1.85;;;9.80;99.90;;;;;;4138672;28;20046;-71
2023/12/31 06:21:38;;;;;;;3.58;2.33;;;9.80;99.90;;;;;;4133703;28;20038;-70
2023/12/31 06:23:38;;;;;;;2.55;2.00;;;9.80;99.90;;;;;;4135568;28;20533;-70
2023/12/31 06:25:39;;;;;;;5.55;2.22;;;9.80;99.90;;;;;;4138452;28;20045;-70
2023/12/31 06:27:40;;;;;;;2.15;1.70;;;9.80;99.90;;;;;;4141790;28;20570;-71
2023/12/31 06:29:40;;;;;;;2.63;1.73;;;9.80;99.90;;;;;;4140691;28;20045;-69
2023/12/31 06:31:41;;;;;;;4.28;2.13;;;9.80;99.90;;;;;;4140406;28;20046;-70
2023/12/31 06:33:41;;;;;;;3.55;2.30;;;9.80;99.90;;;;;;4129610;28;20058;-70
2023/12/31 06:35:42;;;;;;;3.67;2.15;;;9.80;99.90;;;;;;4125337;28;20390;-70
2023/12/31 06:37:43;;;;;;;2.75;1.92;;;9.90;99.90;;;;;;4142158;28;20058;-69
2023/12/31 06:39:44;;;;;;;3.58;2.08;;;9.80;99.90;;;;;;4141278;28;20078;-70
2023/12/31 06:41:44;;;;;;;6.03;2.10;;;9.90;99.90;;;;;;4131103;28;20149;-70
2023/12/31 06:43:45;;;;;;;4.03;2.05;;;9.90;99.90;;;;;;4132959;28;20087;-70
2023/12/31 06:45:45;;;;;;;3.75;1.77;;;9.90;99.90;;;;;;4133243;28;20049;-69
2023/12/31 06:47:46;;;;;;;5.18;2.28;;;9.90;99.90;;;;;;4140472;28;20050;-70
2023/12/31 06:49:47;;;;;;;4.55;2.33;;;9.90;99.90;;;;;;4138765;28;20045;-70
2023/12/31 06:51:47;;;;;;;3.35;2.20;;;9.90;99.90;;;;;;4138548;28;20116;-69
2023/12/31 06:53:48;;;;;;;4.05;2.08;;;9.90;99.90;;;;;;4139594;28;20526;-70
2023/12/31 06:55:49;;;;;;;4.38;1.92;;;9.90;99.90;;;;;;4135683;28;20042;-70
2023/12/31 06:57:50;;;;;;;4.28;2.10;;;9.90;99.90;;;;;;4135366;28;20160;-71
2023/12/31 06:59:50;;;;;;;4.47;2.22;;;9.90;99.90;;;;;;4134104;28;20054;-71
2023/12/31 07:01:51;;;;;;;4.28;2.20;;;9.90;99.90;;;;;;4136656;28;20125;-71
2023/12/31 07:03:52;;;;;;;2.88;1.98;;;9.90;99.90;;;;;;4133741;28;20123;-71
2023/12/31 07:05:52;;;;;;;7.15;2.40;;;9.90;99.90;;;;;;4136122;28;20048;-71
2023/12/31 07:07:53;;;;;;;4.95;2.13;;;10.00;99.90;;;;;;4139794;28;20077;-71
2023/12/31 07:09:54;;;;;;;3.42;2.33;;;10.00;99.90;;;;;;4135327;28;20121;-70
2023/12/31 07:11:55;;;;;;;5.18;2.22;;;10.00;99.90;;;;;;4130626;28;20038;-71
2023/12/31 07:13:56;;;;;;;3.25;1.90;;;10.00;99.90;;;;;;4137728;28;20030;-70
2023/12/31 07:16:00;;;;;;;3.53;2.20;;;10.00;99.90;;;;;;4135667;28;20049;-71
2023/12/31 07:18:00;;;;;;;6.72;2.13;;;10.00;99.90;;;;;;4141871;28;20133;-71
2023/12/31 07:20:05;;;;;;;4.40;2.45;;;10.00;99.90;;;;;;4138332;28;20042;-71
2023/12/31 07:22:06;;;;;;;4.82;2.22;;;10.00;99.90;;;;;;4137858;28;20501;-71
2023/12/31 07:24:07;;;;;;;4.82;1.98;;;10.00;99.90;;;;;;4137770;28;20034;-70
2023/12/31 07:26:07;;;;;;;3.50;2.15;;;10.10;99.90;;;;;;4138434;28;20037;-70
2023/12/31 07:28:08;;;;;;;4.47;1.90;;;10.10;99.90;;;;;;4138969;28;20046;-72
2023/12/31 07:30:09;;;;;;;3.25;1.98;;;10.10;99.90;;;;;;4134600;28;20037;-71
2023/12/31 07:32:13;;;;;;;4.13;2.22;;;10.10;99.90;;;;;;4142771;28;20038;-63
2023/12/31 07:34:15;;;;;;;2.25;1.40;;;10.10;99.90;;;;;;4140315;28;20405;-66
2023/12/31 07:36:16;;;;;;;6.70;2.10;;;10.10;99.90;;;;;;4139394;28;20042;-63
2023/12/31 07:38:16;;;;;;;3.47;1.95;;;10.10;99.90;;;;;;4138944;28;20042;-65
2023/12/31 07:40:17;;;;;;;3.53;2.10;;;10.10;99.90;;;;;;4139104;28;20037;-64
2023/12/31 07:42:18;;;;;;;3.65;1.90;;;10.10;99.90;;;;;;4138488;28;20049;-78
2023/12/31 07:44:19;;;;;;;3.33;1.95;;;10.10;99.90;;;;;;4140930;28;20065;-78
2023/12/31 07:46:20;;;;;;;3.53;1.92;;;10.10;99.90;;;;;;4134787;28;20039;-79
2023/12/31 07:48:20;;;;;;;2.15;1.80;;;10.10;99.90;;;;;;4137371;28;20064;-78
2023/12/31 07:50:21;;;;;;;2.50;1.77;;;10.10;99.90;;;;;;4131805;28;21923;-78
2023/12/31 07:52:21;;;;;;;3.97;2.13;;;10.10;99.90;;;;;;4138479;28;20034;-78
2023/12/31 07:54:23;;;;;;;5.47;1.92;;;10.10;99.90;;;;;;4140546;28;20486;-78
2023/12/31 07:56:24;;;;;;;3.70;2.25;;;10.10;99.90;;;;;;4137705;28;20030;-79
2023/12/31 07:58:27;;;;;;;4.20;2.58;;;10.20;99.90;;;;;;4154659;28;20524;-79
2023/12/31 08:00:27;;;;;;;4.68;2.20;;;10.20;99.90;;;;;;4139741;28;20049;-78
2023/12/31 08:02:28;;;;;;;3.53;2.17;;;10.20;99.90;;;;;;4141870;28;20105;-78
2023/12/31 08:04:29;;;;;;;4.47;2.13;;;10.20;99.90;;;;;;4137777;28;20062;-78
2023/12/31 08:06:29;;;;;;;3.13;1.83;;;10.20;99.90;;;;;;4155342;28;20106;-78
2023/12/31 08:08:30;;;;;;;5.07;1.85;;;10.20;99.90;;;;;;4138691;28;20034;-78
2023/12/31 08:10:30;;;;;;;2.75;1.88;;;10.20;99.90;;;;;;4139437;28;20097;-78
2023/12/31 08:12:31;;;;;;;3.55;1.80;;;10.20;99.90;;;;;;4137762;28;20033;-77
2023/12/31 08:14:31;;;;;;;2.47;1.75;;;10.20;99.90;;;;;;4141379;28;20030;-78
2023/12/31 08:16:32;;;;;;;4.05;2.15;;;10.20;99.90;;;;;;4134872;28;20048;-78
2023/12/31 08:18:34;;;;;;;2.33;1.70;;;10.30;99.90;;;;;;4138992;28;20038;-78
2023/12/31 08:20:35;;;;;;;3.17;1.98;;;10.20;99.90;;;;;;4133651;28;20505;-79
2023/12/31 08:22:35;;;;;;;3.25;1.90;;;10.20;99.90;;;;;;4143005;28;20046;-79
2023/12/31 08:24:36;;;;;;;3.47;2.10;;;10.30;99.90;;;;;;4137015;28;20034;-78
2023/12/31 08:26:38;;;;;;;5.10;2.10;;;10.30;99.90;;;;;;4135523;28;20088;-77
2023/12/31 08:28:39;;;;;;;2.08;1.65;;;10.30;99.90;;;;;;4140619;28;20046;-78
2023/12/31 08:30:39;;;;;;;3.17;2.13;;;10.30;99.90;;;;;;4140422;28;20577;-78
2023/12/31 08:32:40;;;;;;;4.28;1.83;;;10.30;99.90;;;;;;4138605;28;20038;-78
2023/12/31 08:34:40;;;;;;;3.03;1.80;;;10.30;99.90;;;;;;4136319;28;20030;-78
2023/12/31 08:36:41;;;;;;;3.33;2.10;;;10.30;99.90;;;;;;4136401;28;20553;-78
2023/12/31 08:38:41;;;;;;;3.35;1.80;;;10.30;99.90;;;;;;4132331;28;20143;-78
2023/12/31 08:40:42;;;;;;;2.53;1.60;;;10.30;99.90;;;;;;4134258;28;20050;-78
2023/12/31 08:42:43;;;;;;;3.47;2.05;;;10.30;99.90;;;;;;4136658;28;20048;-78
2023/12/31 08:44:43;;;;;;;3.25;1.85;;;10.30;99.90;;;;;;4132075;28;20441;-78
2023/12/31 08:46:47;;;;;;;2.50;1.65;;;10.30;99.90;;;;;;4132657;28;20125;-78
2023/12/31 08:48:48;;;;;;;5.53;2.10;;;10.30;99.90;;;;;;4133341;28;20446;-78
2023/12/31 08:50:49;;;;;;;3.38;1.85;;;10.30;99.90;;;;;;4140725;28;20037;-66
2023/12/31 08:52:50;;;;;;;4.53;2.03;;;10.30;99.90;;;;;;4141594;28;20038;-69
2023/12/31 08:54:50;;;;;;;2.97;1.70;;;10.30;99.90;;;;;;4141002;28;20375;-69
2023/12/31 08:56:51;;;;;;;3.58;2.10;;;10.30;99.90;;;;;;4142336;28;20091;-69
2023/12/31 08:58:52;;;;;;;3.10;1.83;;;10.30;99.90;;;;;;4143459;28;20076;-69
2023/12/31 09:00:53;;;;;;;3.20;1.70;;;10.40;99.90;;;;;;4140638;28;20039;-68
2023/12/31 09:02:54;;;;;;;3.30;2.05;;;10.40;99.90;;;;;;4143591;28;20038;-69
2023/12/31 09:04:55;;;;;;;3.00;2.08;;;10.40;99.90;;;;;;4138394;28;20121;-68
2023/12/31 09:06:55;;;;;;;4.30;2.10;;;10.40;99.90;;;;;;4134533;28;20493;-68
2023/12/31 09:08:56;;;;;;;3.58;2.03;;;10.50;99.90;;;;;;4139065;28;20088;-68
2023/12/31 09:10:57;;;;;;;2.63;1.77;;;10.50;99.90;;;;;;4136035;28;20418;-68
2023/12/31 09:12:59;;;;;;;4.22;2.25;;;10.50;99.90;;;;;;4144877;28;20041;-68
2023/12/31 09:14:59;;;;;;;3.85;2.45;;;10.50;99.90;;;;;;4136392;28;20168;-69
2023/12/31 09:17:00;;;;;;;2.80;1.60;;;10.50;99.90;;;;;;4140560;28;20491;-69
2023/12/31 09:19:01;;;;;;;4.18;2.22;;;10.60;99.90;;;;;;4137581;28;20092;-69
2023/12/31 09:21:01;;;;;;;3.20;2.20;;;10.60;99.90;;;;;;4138293;28;20050;-69
2023/12/31 09:23:02;;;;;;;2.88;2.00;;;10.60;99.90;;;;;;4131442;28;20084;-69
2023/12/31 09:25:05;;;;;;;3.20;2.17;;;10.60;99.90;;;;;;4139754;28;20114;-69
2023/12/31 09:27:09;;;;;;;3.15;2.25;;;10.70;99.90;;;;;;4134536;28;20696;-68
2023/12/31 09:29:10;;;;;;;3.47;1.92;;;10.70;99.90;;;;;;4140709;28;20038;-69
2023/12/31 09:31:10;;;;;;;4.00;2.30;;;10.70;99.90;;;;;;4140395;28;20475;-68
2023/12/31 09:33:12;;;;;;;3.55;2.22;;;10.70;99.90;;;;;;4139999;28;20050;-68
2023/12/31 09:35:13;;;;;;;2.35;1.70;;;10.70;99.90;;;;;;4141289;28;20041;-69
2023/12/31 09:37:18;;;;;;;2.85;1.92;;;10.80;99.90;;;;;;4134053;28;20069;-68
2023/12/31 09:39:19;;;;;;;2.50;1.83;;;10.80;99.90;;;;;;4137416;28;20725;-69
2023/12/31 09:41:26;;;;;;;3.58;1.83;;;10.90;99.90;;;;;;4137697;28;20037;-69
2023/12/31 09:43:27;;;;;;;4.97;1.85;;;10.90;99.90;;;;;;4140893;28;20029;-69
2023/12/31 09:45:30;;;;;;;2.77;2.00;;;10.90;99.90;;;;;;4139352;28;20052;-69
2023/12/31 09:47:33;;;;;;;2.63;2.03;;;11.00;99.90;;;;;;4129067;28;20325;-68
2023/12/31 09:49:35;;;;;;;3.22;1.80;;;11.00;99.90;;;;;;4128189;28;20045;-69
2023/12/31 09:51:36;;;;;;;5.88;2.65;;;10.90;99.90;;;;;;4135410;28;20065;-69
2023/12/31 09:53:39;;;;;;;3.15;1.90;;;10.90;99.90;;;;;;4144783;28;20038;-69
2023/12/31 09:55:39;;;;;;;;;;;10.90;99.90;;;;;;4138721;28;20050;-70
2023/12/31 09:57:45;;;;;;;3.80;2.22;;;10.80;99.90;;;;;;4138511;28;19932;-70
2023/12/31 09:59:48;;;;;;;3.33;1.92;;;10.80;99.90;;;;;;4151668;28;20041;-70
2023/12/31 10:01:49;;;;;;;2.88;1.98;;;10.70;99.90;;;;;;4133455;28;20050;-69
2023/12/31 10:03:50;;;;;;;2.72;1.80;;;10.70;99.90;;;;;;4142157;28;20034;-69
2023/12/31 10:05:52;;;;;;;3.90;2.00;;;10.70;99.90;;;;;;4137238;28;20449;-69
2023/12/31 10:07:54;;;;;;;3.15;2.20;;;10.60;99.90;;;;;;4135923;28;20053;-68
2023/12/31 10:09:56;;;;;;;2.00;1.70;;;10.60;99.90;;;;;;4142647;28;20446;-68
2023/12/31 10:11:57;;;;;;;2.75;1.70;;;10.60;99.90;;;;;;4137355;28;20034;-68
2023/12/31 10:13:57;;;;;;;4.15;2.50;;;10.50;99.90;;;;;;4139686;28;20047;-68
2023/12/31 10:15:58;;;;;;;4.05;2.20;;;10.50;99.90;;;;;;4135874;28;20458;-69
2023/12/31 10:18:02;;;;;;;4.32;2.60;;;10.50;99.90;;;;;;4142168;28;20061;-68
2023/12/31 10:20:04;;;;;;;3.80;2.40;;;10.50;99.90;;;;;;4132621;28;20125;-69
2023/12/31 10:22:05;;;;;;;3.33;2.40;;;10.50;99.90;;;;;;4132366;28;20046;-68
2023/12/31 10:24:06;;;;;;;4.93;2.10;;;10.50;99.90;;;;;;4136449;28;20061;-69
2023/12/31 10:26:07;;;;;;;3.65;2.00;;;10.50;99.90;;;;;;4138290;28;20540;-69
2023/12/31 10:28:08;;;;;;;3.08;2.00;;;10.50;99.90;;;;;;4137577;28;20501;-69
2023/12/31 10:30:11;;;;;;;2.00;1.67;;;10.40;99.90;;;;;;4138459;28;20053;-70
2023/12/31 10:32:12;;;;;;;2.67;1.40;;;10.40;99.90;;;;;;4134545;28;20045;-69
2023/12/31 10:34:16;;;;;;;2.17;1.40;;;10.40;99.90;;;;;;4142924;28;20501;-70
2023/12/31 10:36:24;;;;;;;2.45;1.40;;;10.40;99.90;;;;;;4140689;28;20482;-70